sensor_id;sensor_type;location;lat;lon;timestamp;P1;durP1;ratioP1;P2;durP2;ratioP2
64157;SDS011;50449;51.528;5.076;2023-08-21T00:01:55;189.70;;;182.10;;
64157;SDS011;50449;51.528;5.076;2023-08-21T00:04:21;187.93;;;180.40;;
64157;SDS011;50449;51.528;5.076;2023-08-21T00:06:46;185.25;;;177.75;;
64157;SDS011;50449;51.528;5.076;2023-08-21T00:09:12;188.57;;;181.02;;
64157;SDS011;50449;51.528;5.076;2023-08-21T00:11:37;185.90;;;178.52;;
64157;SDS011;50449;51.528;5.076;2023-08-21T00:14:02;189.27;;;181.48;;
64157;SDS011;50449;51.528;5.076;2023-08-21T00:16:28;186.13;;;178.57;;
64157;SDS011;50449;51.528;5.076;2023-08-21T00:18:54;188.63;;;181.10;;
64157;SDS011;50449;51.528;5.076;2023-08-21T00:21:19;186.98;;;179.52;;
64157;SDS011;50449;51.528;5.076;2023-08-21T00:23:45;184.15;;;176.55;;
64157;SDS011;50449;51.528;5.076;2023-08-21T00:26:11;187.43;;;179.70;;
64157;SDS011;50449;51.528;5.076;2023-08-21T00:28:37;180.30;;;173.05;;
64157;SDS011;50449;51.528;5.076;2023-08-21T00:31:03;184.15;;;176.45;;
64157;SDS011;50449;51.528;5.076;2023-08-21T00:33:32;181.65;;;174.30;;
64157;SDS011;50449;51.528;5.076;2023-08-21T00:35:58;182.05;;;174.65;;
64157;SDS011;50449;51.528;5.076;2023-08-21T00:38:24;182.02;;;174.63;;
64157;SDS011;50449;51.528;5.076;2023-08-21T00:40:50;183.63;;;176.13;;
64157;SDS011;50449;51.528;5.076;2023-08-21T00:43:16;182.73;;;175.13;;
64157;SDS011;50449;51.528;5.076;2023-08-21T00:45:42;179.82;;;172.57;;
64157;SDS011;50449;51.528;5.076;2023-08-21T00:48:09;179.47;;;171.97;;
64157;SDS011;50449;51.528;5.076;2023-08-21T00:50:36;180.40;;;173.23;;
64157;SDS011;50449;51.528;5.076;2023-08-21T00:53:02;182.80;;;175.40;;
64157;SDS011;50449;51.528;5.076;2023-08-21T00:55:31;178.80;;;171.52;;
64157;SDS011;50449;51.528;5.076;2023-08-21T00:57:57;180.65;;;173.43;;
64157;SDS011;50449;51.528;5.076;2023-08-21T01:00:24;183.98;;;176.38;;
64157;SDS011;50449;51.528;5.076;2023-08-21T01:02:52;178.35;;;171.00;;
64157;SDS011;50449;51.528;5.076;2023-08-21T01:05:18;183.73;;;176.43;;
64157;SDS011;50449;51.528;5.076;2023-08-21T01:07:56;174.25;;;167.25;;
64157;SDS011;50449;51.528;5.076;2023-08-21T01:10:42;176.95;;;169.65;;
64157;SDS011;50449;51.528;5.076;2023-08-21T01:15:42;170.93;;;163.82;;
64157;SDS011;50449;51.528;5.076;2023-08-21T01:18:09;171.13;;;163.93;;
64157;SDS011;50449;51.528;5.076;2023-08-21T01:20:34;170.23;;;163.13;;
64157;SDS011;50449;51.528;5.076;2023-08-21T01:23:03;172.32;;;165.02;;
64157;SDS011;50449;51.528;5.076;2023-08-21T01:25:30;168.02;;;161.10;;
64157;SDS011;50449;51.528;5.076;2023-08-21T01:27:56;170.52;;;163.48;;
64157;SDS011;50449;51.528;5.076;2023-08-21T01:30:22;172.15;;;165.07;;
64157;SDS011;50449;51.528;5.076;2023-08-21T01:33:06;169.35;;;162.52;;
64157;SDS011;50449;51.528;5.076;2023-08-21T01:35:36;168.45;;;161.63;;
64157;SDS011;50449;51.528;5.076;2023-08-21T01:38:02;173.07;;;165.93;;
64157;SDS011;50449;51.528;5.076;2023-08-21T01:40:28;174.85;;;167.23;;
64157;SDS011;50449;51.528;5.076;2023-08-21T01:42:54;173.57;;;166.57;;
64157;SDS011;50449;51.528;5.076;2023-08-21T01:45:19;173.68;;;166.45;;
64157;SDS011;50449;51.528;5.076;2023-08-21T01:47:46;175.63;;;168.43;;
64157;SDS011;50449;51.528;5.076;2023-08-21T01:50:11;171.13;;;164.18;;
64157;SDS011;50449;51.528;5.076;2023-08-21T01:52:36;175.68;;;168.57;;
64157;SDS011;50449;51.528;5.076;2023-08-21T01:55:02;171.73;;;164.73;;
64157;SDS011;50449;51.528;5.076;2023-08-21T01:57:28;169.18;;;162.27;;
64157;SDS011;50449;51.528;5.076;2023-08-21T01:59:54;170.50;;;163.63;;
64157;SDS011;50449;51.528;5.076;2023-08-21T02:02:19;170.50;;;163.52;;
64157;SDS011;50449;51.528;5.076;2023-08-21T02:04:45;169.57;;;162.60;;
64157;SDS011;50449;51.528;5.076;2023-08-21T02:07:10;172.05;;;164.75;;
64157;SDS011;50449;51.528;5.076;2023-08-21T02:09:35;169.65;;;162.75;;
64157;SDS011;50449;51.528;5.076;2023-08-21T02:12:01;172.18;;;165.15;;
64157;SDS011;50449;51.528;5.076;2023-08-21T02:14:26;169.93;;;163.02;;
64157;SDS011;50449;51.528;5.076;2023-08-21T02:16:52;166.85;;;159.77;;
64157;SDS011;50449;51.528;5.076;2023-08-21T02:19:17;169.93;;;162.93;;
64157;SDS011;50449;51.528;5.076;2023-08-21T02:21:42;166.10;;;159.32;;
64157;SDS011;50449;51.528;5.076;2023-08-21T02:24:08;167.98;;;161.02;;
64157;SDS011;50449;51.528;5.076;2023-08-21T02:26:33;168.75;;;161.75;;
64157;SDS011;50449;51.528;5.076;2023-08-21T02:28:58;168.80;;;161.93;;
64157;SDS011;50449;51.528;5.076;2023-08-21T02:31:24;166.20;;;159.43;;
64157;SDS011;50449;51.528;5.076;2023-08-21T02:33:49;168.48;;;161.57;;
64157;SDS011;50449;51.528;5.076;2023-08-21T02:36:15;167.35;;;160.50;;
64157;SDS011;50449;51.528;5.076;2023-08-21T02:38:41;170.88;;;163.82;;
64157;SDS011;50449;51.528;5.076;2023-08-21T02:41:06;162.43;;;155.75;;
64157;SDS011;50449;51.528;5.076;2023-08-21T02:43:32;162.40;;;155.75;;
64157;SDS011;50449;51.528;5.076;2023-08-21T02:45:58;165.75;;;158.90;;
64157;SDS011;50449;51.528;5.076;2023-08-21T02:48:23;167.25;;;160.38;;
64157;SDS011;50449;51.528;5.076;2023-08-21T02:50:49;161.50;;;154.93;;
64157;SDS011;50449;51.528;5.076;2023-08-21T02:53:14;164.55;;;157.68;;
64157;SDS011;50449;51.528;5.076;2023-08-21T02:55:40;167.57;;;160.63;;
64157;SDS011;50449;51.528;5.076;2023-08-21T02:58:05;164.65;;;157.82;;
64157;SDS011;50449;51.528;5.076;2023-08-21T03:00:30;160.98;;;154.13;;
64157;SDS011;50449;51.528;5.076;2023-08-21T03:02:56;165.00;;;158.25;;
64157;SDS011;50449;51.528;5.076;2023-08-21T03:05:21;162.75;;;155.85;;
64157;SDS011;50449;51.528;5.076;2023-08-21T03:07:47;164.00;;;157.27;;
64157;SDS011;50449;51.528;5.076;2023-08-21T03:10:12;163.65;;;156.80;;
64157;SDS011;50449;51.528;5.076;2023-08-21T03:12:38;161.70;;;155.10;;
64157;SDS011;50449;51.528;5.076;2023-08-21T03:15:03;159.20;;;152.68;;
64157;SDS011;50449;51.528;5.076;2023-08-21T03:17:29;159.70;;;153.02;;
64157;SDS011;50449;51.528;5.076;2023-08-21T03:19:55;159.68;;;153.10;;
64157;SDS011;50449;51.528;5.076;2023-08-21T03:22:20;155.23;;;148.63;;
64157;SDS011;50449;51.528;5.076;2023-08-21T03:24:46;158.68;;;152.07;;
64157;SDS011;50449;51.528;5.076;2023-08-21T03:27:11;159.00;;;152.30;;
64157;SDS011;50449;51.528;5.076;2023-08-21T03:29:42;160.15;;;153.15;;
64157;SDS011;50449;51.528;5.076;2023-08-21T03:32:13;156.63;;;150.10;;
64157;SDS011;50449;51.528;5.076;2023-08-21T03:34:39;157.32;;;150.57;;
64157;SDS011;50449;51.528;5.076;2023-08-21T03:37:05;156.55;;;149.88;;
64157;SDS011;50449;51.528;5.076;2023-08-21T03:39:30;159.25;;;152.75;;
64157;SDS011;50449;51.528;5.076;2023-08-21T03:41:56;160.30;;;153.70;;
64157;SDS011;50449;51.528;5.076;2023-08-21T03:44:21;158.40;;;151.80;;
64157;SDS011;50449;51.528;5.076;2023-08-21T03:46:46;160.63;;;153.82;;
64157;SDS011;50449;51.528;5.076;2023-08-21T03:49:12;156.40;;;149.98;;
64157;SDS011;50449;51.528;5.076;2023-08-21T03:51:37;157.85;;;151.38;;
64157;SDS011;50449;51.528;5.076;2023-08-21T03:54:03;161.20;;;154.40;;
64157;SDS011;50449;51.528;5.076;2023-08-21T03:56:28;157.50;;;151.02;;
64157;SDS011;50449;51.528;5.076;2023-08-21T03:58:54;154.68;;;148.32;;
64157;SDS011;50449;51.528;5.076;2023-08-21T04:01:19;158.70;;;152.10;;
64157;SDS011;50449;51.528;5.076;2023-08-21T04:03:44;159.60;;;153.00;;
64157;SDS011;50449;51.528;5.076;2023-08-21T04:06:10;156.57;;;149.88;;
64157;SDS011;50449;51.528;5.076;2023-08-21T04:08:35;153.95;;;147.55;;
64157;SDS011;50449;51.528;5.076;2023-08-21T04:11:01;158.15;;;151.63;;
64157;SDS011;50449;51.528;5.076;2023-08-21T04:13:26;156.07;;;149.45;;
64157;SDS011;50449;51.528;5.076;2023-08-21T04:15:53;154.88;;;148.02;;
64157;SDS011;50449;51.528;5.076;2023-08-21T04:18:19;156.07;;;149.40;;
64157;SDS011;50449;51.528;5.076;2023-08-21T04:20:44;159.90;;;153.23;;
64157;SDS011;50449;51.528;5.076;2023-08-21T04:23:12;150.73;;;144.48;;
64157;SDS011;50449;51.528;5.076;2023-08-21T04:25:38;156.02;;;149.52;;
64157;SDS011;50449;51.528;5.076;2023-08-21T04:28:03;155.07;;;148.65;;
64157;SDS011;50449;51.528;5.076;2023-08-21T04:30:29;158.88;;;152.18;;
64157;SDS011;50449;51.528;5.076;2023-08-21T04:32:54;149.63;;;143.13;;
64157;SDS011;50449;51.528;5.076;2023-08-21T04:35:19;156.68;;;150.05;;
64157;SDS011;50449;51.528;5.076;2023-08-21T04:37:48;153.63;;;146.93;;
64157;SDS011;50449;51.528;5.076;2023-08-21T04:40:13;152.52;;;146.15;;
64157;SDS011;50449;51.528;5.076;2023-08-21T04:42:39;150.90;;;144.60;;
64157;SDS011;50449;51.528;5.076;2023-08-21T04:45:04;156.18;;;149.75;;
64157;SDS011;50449;51.528;5.076;2023-08-21T04:47:30;151.52;;;144.93;;
64157;SDS011;50449;51.528;5.076;2023-08-21T04:49:56;157.48;;;150.77;;
64157;SDS011;50449;51.528;5.076;2023-08-21T04:52:22;155.35;;;148.85;;
64157;SDS011;50449;51.528;5.076;2023-08-21T04:54:49;148.80;;;142.55;;
64157;SDS011;50449;51.528;5.076;2023-08-21T04:57:15;153.88;;;147.23;;
64157;SDS011;50449;51.528;5.076;2023-08-21T04:59:42;152.40;;;146.10;;
64157;SDS011;50449;51.528;5.076;2023-08-21T05:02:07;151.30;;;144.80;;
64157;SDS011;50449;51.528;5.076;2023-08-21T05:04:33;154.68;;;148.20;;
64157;SDS011;50449;51.528;5.076;2023-08-21T05:07:01;151.00;;;144.70;;
64157;SDS011;50449;51.528;5.076;2023-08-21T05:09:26;149.23;;;142.70;;
64157;SDS011;50449;51.528;5.076;2023-08-21T05:11:51;148.82;;;142.57;;
64157;SDS011;50449;51.528;5.076;2023-08-21T05:14:17;152.73;;;146.20;;
64157;SDS011;50449;51.528;5.076;2023-08-21T05:16:44;148.60;;;142.30;;
64157;SDS011;50449;51.528;5.076;2023-08-21T05:19:10;152.93;;;146.52;;
64157;SDS011;50449;51.528;5.076;2023-08-21T05:21:35;151.18;;;144.70;;
64157;SDS011;50449;51.528;5.076;2023-08-21T05:24:00;149.63;;;143.13;;
64157;SDS011;50449;51.528;5.076;2023-08-21T05:26:26;143.85;;;137.65;;
64157;SDS011;50449;51.528;5.076;2023-08-21T05:28:51;149.63;;;143.23;;
64157;SDS011;50449;51.528;5.076;2023-08-21T05:31:17;151.20;;;144.75;;
64157;SDS011;50449;51.528;5.076;2023-08-21T05:33:42;156.00;;;149.32;;
64157;SDS011;50449;51.528;5.076;2023-08-21T05:36:07;147.77;;;141.60;;
64157;SDS011;50449;51.528;5.076;2023-08-21T05:38:33;150.95;;;144.48;;
64157;SDS011;50449;51.528;5.076;2023-08-21T05:40:58;149.48;;;143.13;;
64157;SDS011;50449;51.528;5.076;2023-08-21T05:43:24;147.90;;;141.60;;
64157;SDS011;50449;51.528;5.076;2023-08-21T05:45:49;151.02;;;144.60;;
64157;SDS011;50449;51.528;5.076;2023-08-21T05:48:15;145.98;;;139.85;;
64157;SDS011;50449;51.528;5.076;2023-08-21T05:50:41;149.38;;;143.07;;
64157;SDS011;50449;51.528;5.076;2023-08-21T05:53:07;147.23;;;141.05;;
64157;SDS011;50449;51.528;5.076;2023-08-21T05:55:32;142.02;;;136.00;;
64157;SDS011;50449;51.528;5.076;2023-08-21T05:57:58;143.60;;;137.55;;
64157;SDS011;50449;51.528;5.076;2023-08-21T06:00:23;147.88;;;141.57;;
64157;SDS011;50449;51.528;5.076;2023-08-21T06:02:49;147.20;;;140.82;;
64157;SDS011;50449;51.528;5.076;2023-08-21T06:05:14;148.95;;;142.60;;
64157;SDS011;50449;51.528;5.076;2023-08-21T06:07:40;150.43;;;143.88;;
64157;SDS011;50449;51.528;5.076;2023-08-21T06:10:09;145.25;;;139.02;;
64157;SDS011;50449;51.528;5.076;2023-08-21T06:12:37;148.95;;;142.57;;
64157;SDS011;50449;51.528;5.076;2023-08-21T06:15:03;146.50;;;140.10;;
64157;SDS011;50449;51.528;5.076;2023-08-21T06:17:29;144.18;;;138.05;;
64157;SDS011;50449;51.528;5.076;2023-08-21T06:19:54;147.13;;;140.82;;
64157;SDS011;50449;51.528;5.076;2023-08-21T06:22:20;148.88;;;142.60;;
64157;SDS011;50449;51.528;5.076;2023-08-21T06:24:46;152.38;;;145.45;;
64157;SDS011;50449;51.528;5.076;2023-08-21T06:27:11;145.50;;;138.95;;
64157;SDS011;50449;51.528;5.076;2023-08-21T06:29:36;146.52;;;140.13;;
64157;SDS011;50449;51.528;5.076;2023-08-21T06:32:02;143.25;;;136.95;;
64157;SDS011;50449;51.528;5.076;2023-08-21T06:34:28;141.38;;;135.18;;
64157;SDS011;50449;51.528;5.076;2023-08-21T06:36:53;140.23;;;134.18;;
64157;SDS011;50449;51.528;5.076;2023-08-21T06:39:19;139.05;;;132.85;;
64157;SDS011;50449;51.528;5.076;2023-08-21T06:41:44;139.20;;;133.25;;
64157;SDS011;50449;51.528;5.076;2023-08-21T06:44:10;138.38;;;132.40;;
64157;SDS011;50449;51.528;5.076;2023-08-21T06:46:35;141.43;;;135.18;;
64157;SDS011;50449;51.528;5.076;2023-08-21T06:49:01;139.75;;;133.75;;
64157;SDS011;50449;51.528;5.076;2023-08-21T06:51:27;140.23;;;134.07;;
64157;SDS011;50449;51.528;5.076;2023-08-21T06:53:52;137.68;;;131.57;;
64157;SDS011;50449;51.528;5.076;2023-08-21T06:56:18;143.10;;;136.90;;
64157;SDS011;50449;51.528;5.076;2023-08-21T06:58:43;139.93;;;133.80;;
64157;SDS011;50449;51.528;5.076;2023-08-21T07:01:08;143.38;;;137.23;;
64157;SDS011;50449;51.528;5.076;2023-08-21T07:03:34;139.73;;;133.35;;
64157;SDS011;50449;51.528;5.076;2023-08-21T07:05:59;140.95;;;135.00;;
64157;SDS011;50449;51.528;5.076;2023-08-21T07:08:25;138.15;;;131.85;;
64157;SDS011;50449;51.528;5.076;2023-08-21T07:10:52;142.55;;;136.45;;
64157;SDS011;50449;51.528;5.076;2023-08-21T07:13:18;135.05;;;129.32;;
64157;SDS011;50449;51.528;5.076;2023-08-21T07:15:44;138.45;;;132.15;;
64157;SDS011;50449;51.528;5.076;2023-08-21T07:18:09;139.93;;;133.88;;
64157;SDS011;50449;51.528;5.076;2023-08-21T07:20:35;139.93;;;133.85;;
64157;SDS011;50449;51.528;5.076;2023-08-21T07:23:01;137.65;;;131.73;;
64157;SDS011;50449;51.528;5.076;2023-08-21T07:25:26;138.05;;;131.77;;
64157;SDS011;50449;51.528;5.076;2023-08-21T07:27:53;135.90;;;129.95;;
64157;SDS011;50449;51.528;5.076;2023-08-21T07:30:19;138.38;;;132.07;;
64157;SDS011;50449;51.528;5.076;2023-08-21T07:32:45;138.88;;;132.98;;
64157;SDS011;50449;51.528;5.076;2023-08-21T07:35:11;137.98;;;131.98;;
64157;SDS011;50449;51.528;5.076;2023-08-21T07:37:36;137.93;;;131.95;;
64157;SDS011;50449;51.528;5.076;2023-08-21T07:40:02;140.07;;;134.02;;
64157;SDS011;50449;51.528;5.076;2023-08-21T07:42:27;142.70;;;136.50;;
64157;SDS011;50449;51.528;5.076;2023-08-21T07:44:53;139.85;;;133.93;;
64157;SDS011;50449;51.528;5.076;2023-08-21T07:47:18;139.63;;;133.55;;
64157;SDS011;50449;51.528;5.076;2023-08-21T07:49:43;143.77;;;137.68;;
64157;SDS011;50449;51.528;5.076;2023-08-21T07:52:09;141.23;;;135.23;;
64157;SDS011;50449;51.528;5.076;2023-08-21T07:54:34;137.38;;;131.48;;
64157;SDS011;50449;51.528;5.076;2023-08-21T07:57:00;143.38;;;136.82;;
64157;SDS011;50449;51.528;5.076;2023-08-21T07:59:26;137.85;;;132.07;;
64157;SDS011;50449;51.528;5.076;2023-08-21T08:01:52;140.50;;;134.40;;
64157;SDS011;50449;51.528;5.076;2023-08-21T08:04:17;143.80;;;137.45;;
64157;SDS011;50449;51.528;5.076;2023-08-21T08:06:42;138.18;;;132.18;;
64157;SDS011;50449;51.528;5.076;2023-08-21T08:09:08;143.88;;;137.68;;
64157;SDS011;50449;51.528;5.076;2023-08-21T08:11:34;139.65;;;133.73;;
64157;SDS011;50449;51.528;5.076;2023-08-21T08:13:59;139.45;;;133.50;;
64157;SDS011;50449;51.528;5.076;2023-08-21T08:16:24;140.40;;;134.38;;
64157;SDS011;50449;51.528;5.076;2023-08-21T08:18:50;144.75;;;138.43;;
64157;SDS011;50449;51.528;5.076;2023-08-21T08:21:15;141.50;;;135.57;;
64157;SDS011;50449;51.528;5.076;2023-08-21T08:23:41;143.48;;;137.38;;
64157;SDS011;50449;51.528;5.076;2023-08-21T08:26:06;142.88;;;136.75;;
64157;SDS011;50449;51.528;5.076;2023-08-21T08:28:33;145.75;;;139.55;;
64157;SDS011;50449;51.528;5.076;2023-08-21T08:30:59;144.90;;;138.80;;
64157;SDS011;50449;51.528;5.076;2023-08-21T08:33:25;147.10;;;140.95;;
64157;SDS011;50449;51.528;5.076;2023-08-21T08:35:51;147.23;;;141.02;;
64157;SDS011;50449;51.528;5.076;2023-08-21T08:38:16;145.07;;;138.98;;
64157;SDS011;50449;51.528;5.076;2023-08-21T08:40:45;148.52;;;142.18;;
64157;SDS011;50449;51.528;5.076;2023-08-21T08:43:12;142.13;;;136.13;;
64157;SDS011;50449;51.528;5.076;2023-08-21T08:45:38;145.85;;;139.55;;
64157;SDS011;50449;51.528;5.076;2023-08-21T08:48:05;142.80;;;136.70;;
64157;SDS011;50449;51.528;5.076;2023-08-21T08:50:32;146.05;;;139.98;;
64157;SDS011;50449;51.528;5.076;2023-08-21T08:52:58;150.25;;;143.98;;
64157;SDS011;50449;51.528;5.076;2023-08-21T08:55:25;150.88;;;144.57;;
64157;SDS011;50449;51.528;5.076;2023-08-21T08:57:51;152.95;;;146.55;;
64157;SDS011;50449;51.528;5.076;2023-08-21T09:00:17;147.43;;;141.13;;
64157;SDS011;50449;51.528;5.076;2023-08-21T09:02:43;150.43;;;144.02;;
64157;SDS011;50449;51.528;5.076;2023-08-21T09:05:08;145.00;;;138.90;;
64157;SDS011;50449;51.528;5.076;2023-08-21T09:07:35;152.23;;;145.80;;
64157;SDS011;50449;51.528;5.076;2023-08-21T09:10:01;150.70;;;144.38;;
64157;SDS011;50449;51.528;5.076;2023-08-21T09:12:31;150.27;;;144.05;;
64157;SDS011;50449;51.528;5.076;2023-08-21T09:14:57;153.15;;;146.55;;
64157;SDS011;50449;51.528;5.076;2023-08-21T09:17:23;153.80;;;147.43;;
64157;SDS011;50449;51.528;5.076;2023-08-21T09:19:50;152.05;;;145.65;;
64157;SDS011;50449;51.528;5.076;2023-08-21T09:22:16;152.00;;;145.48;;
64157;SDS011;50449;51.528;5.076;2023-08-21T09:27:44;151.57;;;145.23;;
64157;SDS011;50449;51.528;5.076;2023-08-21T09:30:10;157.68;;;150.77;;
64157;SDS011;50449;51.528;5.076;2023-08-21T09:32:55;153.77;;;147.30;;
64157;SDS011;50449;51.528;5.076;2023-08-21T09:35:31;155.38;;;148.85;;
64157;SDS011;50449;51.528;5.076;2023-08-21T09:37:58;154.85;;;148.27;;
64157;SDS011;50449;51.528;5.076;2023-08-21T09:40:24;160.93;;;154.23;;
64157;SDS011;50449;51.528;5.076;2023-08-21T09:42:53;155.75;;;149.25;;
64157;SDS011;50449;51.528;5.076;2023-08-21T09:45:20;157.25;;;150.75;;
64157;SDS011;50449;51.528;5.076;2023-08-21T09:47:50;162.90;;;156.20;;
64157;SDS011;50449;51.528;5.076;2023-08-21T09:50:18;165.02;;;158.32;;
64157;SDS011;50449;51.528;5.076;2023-08-21T09:52:44;162.60;;;155.70;;
64157;SDS011;50449;51.528;5.076;2023-08-21T09:55:10;159.95;;;153.23;;
64157;SDS011;50449;51.528;5.076;2023-08-21T09:57:39;158.35;;;151.80;;
64157;SDS011;50449;51.528;5.076;2023-08-21T10:00:05;166.70;;;159.80;;
64157;SDS011;50449;51.528;5.076;2023-08-21T10:02:43;165.35;;;158.65;;
64157;SDS011;50449;51.528;5.076;2023-08-21T10:05:15;160.52;;;153.63;;
64157;SDS011;50449;51.528;5.076;2023-08-21T10:07:41;168.73;;;161.82;;
64157;SDS011;50449;51.528;5.076;2023-08-21T10:10:09;167.38;;;160.43;;
64157;SDS011;50449;51.528;5.076;2023-08-21T10:12:36;162.40;;;155.75;;
64157;SDS011;50449;51.528;5.076;2023-08-21T10:15:01;163.98;;;157.15;;
64157;SDS011;50449;51.528;5.076;2023-08-21T10:17:27;165.25;;;158.50;;
64157;SDS011;50449;51.528;5.076;2023-08-21T10:19:52;166.18;;;159.35;;
64157;SDS011;50449;51.528;5.076;2023-08-21T10:22:39;164.50;;;157.60;;
64157;SDS011;50449;51.528;5.076;2023-08-21T10:27:41;166.75;;;159.80;;
64157;SDS011;50449;51.528;5.076;2023-08-21T10:30:20;170.48;;;163.38;;
64157;SDS011;50449;51.528;5.076;2023-08-21T10:32:48;166.98;;;160.10;;
64157;SDS011;50449;51.528;5.076;2023-08-21T10:35:15;167.48;;;160.35;;
64157;SDS011;50449;51.528;5.076;2023-08-21T10:38:28;170.60;;;163.50;;
64157;SDS011;50449;51.528;5.076;2023-08-21T10:40:35;171.13;;;164.20;;
64157;SDS011;50449;51.528;5.076;2023-08-21T10:43:02;173.60;;;166.52;;
64157;SDS011;50449;51.528;5.076;2023-08-21T10:45:28;174.07;;;167.02;;
64157;SDS011;50449;51.528;5.076;2023-08-21T10:47:56;172.27;;;165.25;;
64157;SDS011;50449;51.528;5.076;2023-08-21T10:52:47;169.45;;;162.35;;
64157;SDS011;50449;51.528;5.076;2023-08-21T10:55:16;174.35;;;167.35;;
64157;SDS011;50449;51.528;5.076;2023-08-21T10:57:48;178.93;;;171.73;;
64157;SDS011;50449;51.528;5.076;2023-08-21T11:00:15;176.15;;;168.77;;
64157;SDS011;50449;51.528;5.076;2023-08-21T11:02:45;173.07;;;166.10;;
64157;SDS011;50449;51.528;5.076;2023-08-21T11:05:12;180.70;;;173.50;;
64157;SDS011;50449;51.528;5.076;2023-08-21T11:07:42;178.23;;;170.93;;
64157;SDS011;50449;51.528;5.076;2023-08-21T11:10:10;174.38;;;167.35;;
64157;SDS011;50449;51.528;5.076;2023-08-21T11:12:53;173.45;;;166.40;;
64157;SDS011;50449;51.528;5.076;2023-08-21T11:15:20;175.23;;;168.13;;
64157;SDS011;50449;51.528;5.076;2023-08-21T11:17:55;178.35;;;170.63;;
64157;SDS011;50449;51.528;5.076;2023-08-21T11:20:31;183.98;;;176.63;;
64157;SDS011;50449;51.528;5.076;2023-08-21T11:22:58;181.48;;;174.15;;
64157;SDS011;50449;51.528;5.076;2023-08-21T11:25:27;177.35;;;170.15;;
64157;SDS011;50449;51.528;5.076;2023-08-21T11:27:54;184.20;;;176.80;;
64157;SDS011;50449;51.528;5.076;2023-08-21T11:30:21;180.00;;;172.68;;
64157;SDS011;50449;51.528;5.076;2023-08-21T11:32:48;180.95;;;173.73;;
64157;SDS011;50449;51.528;5.076;2023-08-21T11:35:14;181.25;;;173.85;;
64157;SDS011;50449;51.528;5.076;2023-08-21T11:37:43;185.80;;;178.20;;
64157;SDS011;50449;51.528;5.076;2023-08-21T11:40:12;189.90;;;182.35;;
64157;SDS011;50449;51.528;5.076;2023-08-21T11:42:38;186.77;;;179.32;;
64157;SDS011;50449;51.528;5.076;2023-08-21T11:45:04;185.55;;;178.15;;
64157;SDS011;50449;51.528;5.076;2023-08-21T11:47:30;186.77;;;179.27;;
64157;SDS011;50449;51.528;5.076;2023-08-21T11:50:01;184.77;;;177.27;;
64157;SDS011;50449;51.528;5.076;2023-08-21T11:52:30;189.75;;;182.23;;
64157;SDS011;50449;51.528;5.076;2023-08-21T11:54:57;187.77;;;180.25;;
64157;SDS011;50449;51.528;5.076;2023-08-21T11:57:22;184.85;;;177.45;;
64157;SDS011;50449;51.528;5.076;2023-08-21T11:59:53;184.35;;;176.80;;
64157;SDS011;50449;51.528;5.076;2023-08-21T12:02:24;189.35;;;181.75;;
64157;SDS011;50449;51.528;5.076;2023-08-21T12:07:19;185.98;;;178.43;;
64157;SDS011;50449;51.528;5.076;2023-08-21T12:09:48;191.75;;;183.95;;
64157;SDS011;50449;51.528;5.076;2023-08-21T12:12:14;191.45;;;183.85;;
64157;SDS011;50449;51.528;5.076;2023-08-21T12:14:40;192.73;;;185.05;;
64157;SDS011;50449;51.528;5.076;2023-08-21T12:17:05;190.07;;;182.45;;
64157;SDS011;50449;51.528;5.076;2023-08-21T12:19:31;188.93;;;181.48;;
64157;SDS011;50449;51.528;5.076;2023-08-21T12:21:56;195.65;;;187.82;;
64157;SDS011;50449;51.528;5.076;2023-08-21T12:24:23;189.77;;;182.25;;
64157;SDS011;50449;51.528;5.076;2023-08-21T12:26:49;191.88;;;184.27;;
64157;SDS011;50449;51.528;5.076;2023-08-21T12:29:14;193.10;;;185.38;;
64157;SDS011;50449;51.528;5.076;2023-08-21T12:31:39;189.82;;;182.30;;
64157;SDS011;50449;51.528;5.076;2023-08-21T12:34:05;193.20;;;185.52;;
64157;SDS011;50449;51.528;5.076;2023-08-21T12:36:30;191.20;;;183.60;;
64157;SDS011;50449;51.528;5.076;2023-08-21T12:38:56;192.75;;;185.13;;
64157;SDS011;50449;51.528;5.076;2023-08-21T12:41:21;192.27;;;184.52;;
64157;SDS011;50449;51.528;5.076;2023-08-21T12:43:46;195.13;;;187.25;;
64157;SDS011;50449;51.528;5.076;2023-08-21T12:46:13;196.07;;;188.27;;
64157;SDS011;50449;51.528;5.076;2023-08-21T12:48:38;200.32;;;192.32;;
64157;SDS011;50449;51.528;5.076;2023-08-21T12:51:04;197.93;;;190.13;;
64157;SDS011;50449;51.528;5.076;2023-08-21T12:53:30;195.63;;;187.80;;
64157;SDS011;50449;51.528;5.076;2023-08-21T12:55:55;201.15;;;193.05;;
64157;SDS011;50449;51.528;5.076;2023-08-21T12:58:21;197.73;;;189.88;;
64157;SDS011;50449;51.528;5.076;2023-08-21T13:00:46;192.38;;;184.77;;
64157;SDS011;50449;51.528;5.076;2023-08-21T13:03:11;200.15;;;192.05;;
64157;SDS011;50449;51.528;5.076;2023-08-21T13:05:37;196.38;;;188.63;;
64157;SDS011;50449;51.528;5.076;2023-08-21T13:08:02;200.90;;;192.85;;
64157;SDS011;50449;51.528;5.076;2023-08-21T13:10:28;202.55;;;194.63;;
64157;SDS011;50449;51.528;5.076;2023-08-21T13:12:53;200.02;;;192.10;;
64157;SDS011;50449;51.528;5.076;2023-08-21T13:15:19;206.00;;;197.77;;
64157;SDS011;50449;51.528;5.076;2023-08-21T13:17:44;203.48;;;195.43;;
64157;SDS011;50449;51.528;5.076;2023-08-21T13:20:10;204.05;;;195.88;;
64157;SDS011;50449;51.528;5.076;2023-08-21T13:22:48;206.82;;;198.73;;
64157;SDS011;50449;51.528;5.076;2023-08-21T13:25:17;205.40;;;197.35;;
64157;SDS011;50449;51.528;5.076;2023-08-21T13:27:43;207.20;;;199.00;;
64157;SDS011;50449;51.528;5.076;2023-08-21T13:30:09;211.65;;;203.25;;
64157;SDS011;50449;51.528;5.076;2023-08-21T13:32:35;208.32;;;200.13;;
64157;SDS011;50449;51.528;5.076;2023-08-21T13:35:00;211.77;;;203.45;;
64157;SDS011;50449;51.528;5.076;2023-08-21T13:37:26;214.43;;;205.82;;
64157;SDS011;50449;51.528;5.076;2023-08-21T13:39:52;217.80;;;209.30;;
64157;SDS011;50449;51.528;5.076;2023-08-21T13:42:20;214.63;;;206.18;;
64157;SDS011;50449;51.528;5.076;2023-08-21T13:44:45;211.02;;;202.75;;
64157;SDS011;50449;51.528;5.076;2023-08-21T13:47:11;214.73;;;206.32;;
64157;SDS011;50449;51.528;5.076;2023-08-21T13:49:36;214.98;;;206.68;;
64157;SDS011;50449;51.528;5.076;2023-08-21T13:52:02;215.70;;;207.38;;
64157;SDS011;50449;51.528;5.076;2023-08-21T13:54:28;217.05;;;208.68;;
64157;SDS011;50449;51.528;5.076;2023-08-21T13:56:54;220.57;;;211.90;;
64157;SDS011;50449;51.528;5.076;2023-08-21T13:59:19;221.32;;;212.68;;
64157;SDS011;50449;51.528;5.076;2023-08-21T14:01:45;224.15;;;215.45;;
64157;SDS011;50449;51.528;5.076;2023-08-21T14:04:10;222.18;;;213.57;;
64157;SDS011;50449;51.528;5.076;2023-08-21T14:06:36;217.77;;;209.40;;